Hastings, NE

12:48 PM CDT on May 03, 2015 (GMT -0500)
Oswego Park | | Change Station
CLOSE
Current Station
Personal Weather Station
Location: Hastings, NE
Elevation: 1949 ft
Nearby Weather Stations

Elev 1949 ft 40.59 °N, 98.41 °W | Updated 9 seconds ago

Clear
Clear
92.1 °F
Feels Like 89 °F
N
2.7
Wind Variable Wind from NNW
Gusts 5.3 mph

Today
High -- | Low -- °F
--% Chance of Precip.
Yesterday
High -- | Low -- °F
Precip. -- in
6:30 AM 8:31 PM
Full, 100% visible
Pressure 29.71 in
Visibility 10.0 miles
Clouds Clear
Heat Index 89 °F
Dew Point 47 °F
Humidity 21%
Rainfall 0.00 in
Snow Depth Not available.
UV 9 out of 12
Pollen 11.00 out of 12
Air Quality Not available.
Flu Activity Local Activity
METAR KHSI 031653Z AUTO 24006KT 10SM CLR 28/07 A2976 RMK AO2 SLP059 T02830072

More Conditions Fewer Conditions

Pressure 29.71 in
Visibility 10.0 miles
Clouds Clear
Heat Index 89 °F
Dew Point 47 °F
Humidity 21%
Rainfall 0.00 in
Snow Depth Not available.
UV 9 out of 12
Pollen 11.00 out of 12
Air Quality Not available.
Flu Activity Local Activity
METAR KHSI 031653Z AUTO 24006KT 10SM CLR 28/07 A2976 RMK AO2 SLP059 T02830072

More Conditions Fewer Conditions

Nepal has a long way to go to dig out and rebuild from a devastating earthquake. We have teamed up with several charities and organizations to make contributing to the relief effort as easy as possible.
How you can help: Portlight Strategies | Red Cross

10-Day Weather Forecast

Almanac

Astronomy

May. 03, 2015 Rise Set
Actual Time
Civil Twilight
Nautical Twilight
Astronomical Twilight
Moon
Length of Visible Light
Length of Day
Tomorrow will be .
, % of the Moon is Illuminated

Today's Extremes

State Highs State Lows

Community

WunderPhotos

Upload Photos

1,818,296 photos uploaded!

WunderBlogs® & News

Nearby

Air Quality

  Air Quality AQ Index Pollutant
Not available.

Snow Depth

Station Depth Elevation

Earthquake Activity

City Distance Mag. Time & Date
Minimum magnitude displayed is 2.5.

Coastal Water Temperatures

Place Temperature

Stations

Nearby Weather Stations

Station Location Temp. Windchill Dew Point Humidity Wind Precip. Elev Updated Type